sensor_id;sensor_type;location;lat;lon;timestamp;P1;durP1;ratioP1;P2;durP2;ratioP2
13040;SDS011;6587;42.728;23.288;2023-02-01T00:02:15;7.00;;;5.30;;
13040;SDS011;6587;42.728;23.288;2023-02-01T00:04:42;7.50;;;5.50;;
13040;SDS011;6587;42.728;23.288;2023-02-01T00:07:09;10.57;;;6.33;;
13040;SDS011;6587;42.728;23.288;2023-02-01T00:09:37;14.00;;;6.90;;
13040;SDS011;6587;42.728;23.288;2023-02-01T00:12:04;9.63;;;6.27;;
13040;SDS011;6587;42.728;23.288;2023-02-01T00:14:31;8.67;;;6.00;;
13040;SDS011;6587;42.728;23.288;2023-02-01T00:17:03;8.40;;;6.03;;
13040;SDS011;6587;42.728;23.288;2023-02-01T00:19:32;7.30;;;6.27;;
13040;SDS011;6587;42.728;23.288;2023-02-01T00:21:59;9.50;;;5.67;;
13040;SDS011;6587;42.728;23.288;2023-02-01T00:24:26;9.13;;;5.50;;
13040;SDS011;6587;42.728;23.288;2023-02-01T00:26:55;10.50;;;6.13;;
13040;SDS011;6587;42.728;23.288;2023-02-01T00:29:22;7.77;;;5.77;;
13040;SDS011;6587;42.728;23.288;2023-02-01T00:31:50;6.43;;;5.40;;
13040;SDS011;6587;42.728;23.288;2023-02-01T00:34:17;6.00;;;5.30;;
13040;SDS011;6587;42.728;23.288;2023-02-01T00:36:46;8.27;;;5.80;;
13040;SDS011;6587;42.728;23.288;2023-02-01T00:39:13;7.03;;;5.77;;
13040;SDS011;6587;42.728;23.288;2023-02-01T00:41:40;8.47;;;5.37;;
13040;SDS011;6587;42.728;23.288;2023-02-01T00:44:08;6.10;;;4.87;;
13040;SDS011;6587;42.728;23.288;2023-02-01T00:46:36;6.40;;;4.67;;
13040;SDS011;6587;42.728;23.288;2023-02-01T00:49:03;6.70;;;4.80;;
13040;SDS011;6587;42.728;23.288;2023-02-01T00:51:31;5.43;;;4.37;;
13040;SDS011;6587;42.728;23.288;2023-02-01T00:53:57;5.83;;;4.67;;
13040;SDS011;6587;42.728;23.288;2023-02-01T00:56:25;8.40;;;5.00;;
13040;SDS011;6587;42.728;23.288;2023-02-01T00:58:53;7.83;;;4.73;;
13040;SDS011;6587;42.728;23.288;2023-02-01T01:01:22;10.50;;;5.57;;
13040;SDS011;6587;42.728;23.288;2023-02-01T01:03:51;6.93;;;4.30;;
13040;SDS011;6587;42.728;23.288;2023-02-01T01:06:21;7.27;;;5.13;;
13040;SDS011;6587;42.728;23.288;2023-02-01T01:08:50;9.03;;;5.23;;
13040;SDS011;6587;42.728;23.288;2023-02-01T01:11:19;7.67;;;4.80;;
13040;SDS011;6587;42.728;23.288;2023-02-01T01:13:49;9.07;;;5.73;;
13040;SDS011;6587;42.728;23.288;2023-02-01T01:16:18;10.07;;;5.40;;
13040;SDS011;6587;42.728;23.288;2023-02-01T01:18:47;9.50;;;6.17;;
13040;SDS011;6587;42.728;23.288;2023-02-01T01:21:15;5.40;;;4.17;;
13040;SDS011;6587;42.728;23.288;2023-02-01T01:23:43;7.33;;;5.23;;
13040;SDS011;6587;42.728;23.288;2023-02-01T01:26:12;8.43;;;4.93;;
13040;SDS011;6587;42.728;23.288;2023-02-01T01:28:41;8.63;;;4.90;;
13040;SDS011;6587;42.728;23.288;2023-02-01T01:31:08;8.57;;;4.27;;
13040;SDS011;6587;42.728;23.288;2023-02-01T01:33:35;6.80;;;3.90;;
13040;SDS011;6587;42.728;23.288;2023-02-01T01:36:05;6.50;;;4.47;;
13040;SDS011;6587;42.728;23.288;2023-02-01T01:38:36;8.03;;;4.83;;
13040;SDS011;6587;42.728;23.288;2023-02-01T01:41:03;5.13;;;3.97;;
13040;SDS011;6587;42.728;23.288;2023-02-01T01:43:44;8.83;;;4.47;;
13040;SDS011;6587;42.728;23.288;2023-02-01T01:46:18;6.40;;;4.00;;
13040;SDS011;6587;42.728;23.288;2023-02-01T01:48:47;7.77;;;4.07;;
13040;SDS011;6587;42.728;23.288;2023-02-01T01:51:19;5.23;;;3.60;;
13040;SDS011;6587;42.728;23.288;2023-02-01T01:53:50;8.03;;;5.70;;
13040;SDS011;6587;42.728;23.288;2023-02-01T01:56:23;6.83;;;4.20;;
13040;SDS011;6587;42.728;23.288;2023-02-01T01:58:52;6.47;;;4.60;;
13040;SDS011;6587;42.728;23.288;2023-02-01T02:01:20;6.67;;;3.63;;
13040;SDS011;6587;42.728;23.288;2023-02-01T02:03:47;7.43;;;4.40;;
13040;SDS011;6587;42.728;23.288;2023-02-01T02:06:16;8.87;;;5.50;;
13040;SDS011;6587;42.728;23.288;2023-02-01T02:08:54;5.20;;;4.13;;
13040;SDS011;6587;42.728;23.288;2023-02-01T02:11:21;7.23;;;5.27;;
13040;SDS011;6587;42.728;23.288;2023-02-01T02:13:50;8.57;;;4.70;;
13040;SDS011;6587;42.728;23.288;2023-02-01T02:19:32;11.07;;;4.90;;
13040;SDS011;6587;42.728;23.288;2023-02-01T02:22:30;8.43;;;4.83;;
13040;SDS011;6587;42.728;23.288;2023-02-01T02:28:10;6.73;;;4.13;;
13040;SDS011;6587;42.728;23.288;2023-02-01T02:30:54;7.27;;;4.47;;
13040;SDS011;6587;42.728;23.288;2023-02-01T02:33:59;4.90;;;4.10;;
13040;SDS011;6587;42.728;23.288;2023-02-01T02:36:37;7.30;;;3.97;;
13040;SDS011;6587;42.728;23.288;2023-02-01T02:39:16;6.70;;;3.90;;
13040;SDS011;6587;42.728;23.288;2023-02-01T02:41:51;5.57;;;4.10;;
13040;SDS011;6587;42.728;23.288;2023-02-01T02:44:43;5.10;;;4.10;;
13040;SDS011;6587;42.728;23.288;2023-02-01T02:47:34;5.30;;;4.60;;
13040;SDS011;6587;42.728;23.288;2023-02-01T02:50:08;5.57;;;3.70;;
13040;SDS011;6587;42.728;23.288;2023-02-01T02:53:00;4.77;;;3.70;;
13040;SDS011;6587;42.728;23.288;2023-02-01T02:55:49;7.00;;;3.53;;
13040;SDS011;6587;42.728;23.288;2023-02-01T02:58:18;5.87;;;3.90;;
13040;SDS011;6587;42.728;23.288;2023-02-01T03:01:05;5.33;;;3.77;;
13040;SDS011;6587;42.728;23.288;2023-02-01T03:03:49;5.27;;;3.53;;
13040;SDS011;6587;42.728;23.288;2023-02-01T03:06:39;4.20;;;3.63;;
13040;SDS011;6587;42.728;23.288;2023-02-01T03:09:08;4.03;;;3.13;;
13040;SDS011;6587;42.728;23.288;2023-02-01T03:11:39;4.00;;;3.20;;
13040;SDS011;6587;42.728;23.288;2023-02-01T03:14:27;4.73;;;2.93;;
13040;SDS011;6587;42.728;23.288;2023-02-01T03:16:58;5.30;;;3.40;;
13040;SDS011;6587;42.728;23.288;2023-02-01T03:19:29;4.17;;;3.20;;
13040;SDS011;6587;42.728;23.288;2023-02-01T03:22:04;4.77;;;3.23;;
13040;SDS011;6587;42.728;23.288;2023-02-01T03:24:36;5.07;;;3.07;;
13040;SDS011;6587;42.728;23.288;2023-02-01T03:27:07;5.63;;;3.37;;
13040;SDS011;6587;42.728;23.288;2023-02-01T03:29:40;4.47;;;3.30;;
13040;SDS011;6587;42.728;23.288;2023-02-01T03:32:12;5.37;;;2.97;;
13040;SDS011;6587;42.728;23.288;2023-02-01T03:34:39;7.37;;;3.50;;
13040;SDS011;6587;42.728;23.288;2023-02-01T03:37:08;4.20;;;2.90;;
13040;SDS011;6587;42.728;23.288;2023-02-01T03:39:38;5.63;;;2.73;;
13040;SDS011;6587;42.728;23.288;2023-02-01T03:42:12;3.07;;;2.77;;
13040;SDS011;6587;42.728;23.288;2023-02-01T03:44:45;3.23;;;2.90;;
13040;SDS011;6587;42.728;23.288;2023-02-01T03:47:15;4.23;;;3.00;;
13040;SDS011;6587;42.728;23.288;2023-02-01T03:49:46;5.90;;;3.80;;
13040;SDS011;6587;42.728;23.288;2023-02-01T03:52:20;3.70;;;3.33;;
13040;SDS011;6587;42.728;23.288;2023-02-01T03:54:53;6.07;;;3.57;;
13040;SDS011;6587;42.728;23.288;2023-02-01T03:57:23;6.73;;;4.50;;
13040;SDS011;6587;42.728;23.288;2023-02-01T03:59:55;5.47;;;3.93;;
13040;SDS011;6587;42.728;23.288;2023-02-01T04:02:39;4.60;;;3.90;;
13040;SDS011;6587;42.728;23.288;2023-02-01T04:05:06;5.83;;;3.20;;
13040;SDS011;6587;42.728;23.288;2023-02-01T04:07:36;3.97;;;3.57;;
13040;SDS011;6587;42.728;23.288;2023-02-01T04:10:04;7.27;;;4.17;;
13040;SDS011;6587;42.728;23.288;2023-02-01T04:12:31;7.63;;;5.20;;
13040;SDS011;6587;42.728;23.288;2023-02-01T04:15:01;8.13;;;5.47;;
13040;SDS011;6587;42.728;23.288;2023-02-01T04:17:28;9.33;;;5.80;;
13040;SDS011;6587;42.728;23.288;2023-02-01T04:19:55;5.30;;;4.03;;
13040;SDS011;6587;42.728;23.288;2023-02-01T04:22:24;6.13;;;4.00;;
13040;SDS011;6587;42.728;23.288;2023-02-01T04:24:52;7.30;;;3.67;;
13040;SDS011;6587;42.728;23.288;2023-02-01T04:27:19;7.30;;;4.27;;
13040;SDS011;6587;42.728;23.288;2023-02-01T04:29:46;6.97;;;3.70;;
13040;SDS011;6587;42.728;23.288;2023-02-01T04:32:14;6.87;;;4.23;;
13040;SDS011;6587;42.728;23.288;2023-02-01T04:34:42;5.60;;;4.53;;
13040;SDS011;6587;42.728;23.288;2023-02-01T04:37:09;7.93;;;5.00;;
13040;SDS011;6587;42.728;23.288;2023-02-01T04:39:36;5.53;;;3.93;;
13040;SDS011;6587;42.728;23.288;2023-02-01T04:42:05;6.47;;;4.67;;
13040;SDS011;6587;42.728;23.288;2023-02-01T04:44:31;8.93;;;4.80;;
13040;SDS011;6587;42.728;23.288;2023-02-01T04:46:59;8.70;;;4.70;;
13040;SDS011;6587;42.728;23.288;2023-02-01T04:49:26;6.60;;;4.70;;
13040;SDS011;6587;42.728;23.288;2023-02-01T04:51:53;6.80;;;4.43;;
13040;SDS011;6587;42.728;23.288;2023-02-01T04:54:20;6.87;;;4.23;;
13040;SDS011;6587;42.728;23.288;2023-02-01T04:56:47;5.00;;;3.83;;
13040;SDS011;6587;42.728;23.288;2023-02-01T04:59:15;5.90;;;3.90;;
13040;SDS011;6587;42.728;23.288;2023-02-01T05:01:42;5.17;;;3.67;;
13040;SDS011;6587;42.728;23.288;2023-02-01T05:04:09;5.23;;;3.60;;
13040;SDS011;6587;42.728;23.288;2023-02-01T05:06:36;8.47;;;4.77;;
13040;SDS011;6587;42.728;23.288;2023-02-01T05:09:02;11.83;;;4.83;;
13040;SDS011;6587;42.728;23.288;2023-02-01T05:11:30;7.57;;;4.60;;
13040;SDS011;6587;42.728;23.288;2023-02-01T05:14:15;6.27;;;4.10;;
13040;SDS011;6587;42.728;23.288;2023-02-01T05:16:42;8.00;;;4.47;;
13040;SDS011;6587;42.728;23.288;2023-02-01T05:19:09;7.47;;;4.67;;
13040;SDS011;6587;42.728;23.288;2023-02-01T05:21:36;5.40;;;4.20;;
13040;SDS011;6587;42.728;23.288;2023-02-01T05:24:03;6.33;;;4.80;;
13040;SDS011;6587;42.728;23.288;2023-02-01T05:26:38;6.30;;;4.67;;
13040;SDS011;6587;42.728;23.288;2023-02-01T05:29:06;7.20;;;5.13;;
13040;SDS011;6587;42.728;23.288;2023-02-01T05:31:35;6.70;;;4.40;;
13040;SDS011;6587;42.728;23.288;2023-02-01T05:34:02;8.93;;;5.03;;
13040;SDS011;6587;42.728;23.288;2023-02-01T05:36:30;6.57;;;4.93;;
13040;SDS011;6587;42.728;23.288;2023-02-01T05:38:57;9.93;;;5.57;;
13040;SDS011;6587;42.728;23.288;2023-02-01T05:41:24;12.10;;;6.60;;
13040;SDS011;6587;42.728;23.288;2023-02-01T05:43:51;9.50;;;6.27;;
13040;SDS011;6587;42.728;23.288;2023-02-01T05:46:18;9.27;;;6.47;;
13040;SDS011;6587;42.728;23.288;2023-02-01T05:48:47;10.10;;;6.67;;
13040;SDS011;6587;42.728;23.288;2023-02-01T05:51:14;11.77;;;7.40;;
13040;SDS011;6587;42.728;23.288;2023-02-01T05:53:40;8.27;;;6.50;;
13040;SDS011;6587;42.728;23.288;2023-02-01T05:56:07;11.63;;;7.00;;
13040;SDS011;6587;42.728;23.288;2023-02-01T05:58:34;9.97;;;6.73;;
13040;SDS011;6587;42.728;23.288;2023-02-01T06:01:02;7.60;;;5.63;;
13040;SDS011;6587;42.728;23.288;2023-02-01T06:03:29;8.93;;;5.47;;
13040;SDS011;6587;42.728;23.288;2023-02-01T06:05:58;7.57;;;6.00;;
13040;SDS011;6587;42.728;23.288;2023-02-01T06:08:26;12.07;;;6.33;;
13040;SDS011;6587;42.728;23.288;2023-02-01T06:10:57;10.27;;;5.77;;
13040;SDS011;6587;42.728;23.288;2023-02-01T06:13:25;11.73;;;7.10;;
13040;SDS011;6587;42.728;23.288;2023-02-01T06:15:52;9.27;;;6.40;;
13040;SDS011;6587;42.728;23.288;2023-02-01T06:18:19;12.47;;;6.87;;
13040;SDS011;6587;42.728;23.288;2023-02-01T06:20:51;8.10;;;5.73;;
13040;SDS011;6587;42.728;23.288;2023-02-01T06:23:20;9.17;;;6.23;;
13040;SDS011;6587;42.728;23.288;2023-02-01T06:25:49;11.17;;;6.93;;
13040;SDS011;6587;42.728;23.288;2023-02-01T06:28:16;11.30;;;6.57;;
13040;SDS011;6587;42.728;23.288;2023-02-01T06:30:43;8.67;;;6.57;;
13040;SDS011;6587;42.728;23.288;2023-02-01T06:33:12;11.23;;;6.43;;
13040;SDS011;6587;42.728;23.288;2023-02-01T06:35:41;6.37;;;4.70;;
13040;SDS011;6587;42.728;23.288;2023-02-01T06:38:09;12.90;;;4.83;;
13040;SDS011;6587;42.728;23.288;2023-02-01T06:40:37;9.27;;;5.60;;
13040;SDS011;6587;42.728;23.288;2023-02-01T06:43:05;5.77;;;4.77;;
13040;SDS011;6587;42.728;23.288;2023-02-01T06:45:32;10.63;;;5.90;;
13040;SDS011;6587;42.728;23.288;2023-02-01T06:47:59;7.87;;;5.23;;
13040;SDS011;6587;42.728;23.288;2023-02-01T06:50:27;8.17;;;6.37;;
13040;SDS011;6587;42.728;23.288;2023-02-01T06:52:54;13.00;;;6.60;;
13040;SDS011;6587;42.728;23.288;2023-02-01T06:55:21;6.63;;;5.13;;
13040;SDS011;6587;42.728;23.288;2023-02-01T06:57:49;5.00;;;3.87;;
13040;SDS011;6587;42.728;23.288;2023-02-01T07:00:19;9.27;;;6.20;;
13040;SDS011;6587;42.728;23.288;2023-02-01T07:02:47;8.07;;;5.30;;
13040;SDS011;6587;42.728;23.288;2023-02-01T07:05:14;14.37;;;7.27;;
13040;SDS011;6587;42.728;23.288;2023-02-01T07:07:41;10.67;;;6.60;;
13040;SDS011;6587;42.728;23.288;2023-02-01T07:10:08;12.10;;;6.00;;
13040;SDS011;6587;42.728;23.288;2023-02-01T07:12:36;7.43;;;4.60;;
13040;SDS011;6587;42.728;23.288;2023-02-01T07:15:05;10.00;;;6.23;;
13040;SDS011;6587;42.728;23.288;2023-02-01T07:17:33;14.60;;;8.43;;
13040;SDS011;6587;42.728;23.288;2023-02-01T07:20:00;20.00;;;10.40;;
13040;SDS011;6587;42.728;23.288;2023-02-01T07:22:27;10.60;;;6.40;;
13040;SDS011;6587;42.728;23.288;2023-02-01T07:24:54;13.67;;;5.20;;
13040;SDS011;6587;42.728;23.288;2023-02-01T07:27:21;8.83;;;5.37;;
13040;SDS011;6587;42.728;23.288;2023-02-01T07:29:50;10.40;;;6.40;;
13040;SDS011;6587;42.728;23.288;2023-02-01T07:32:18;19.23;;;10.20;;
13040;SDS011;6587;42.728;23.288;2023-02-01T07:34:45;9.37;;;5.87;;
13040;SDS011;6587;42.728;23.288;2023-02-01T07:37:12;7.53;;;4.00;;
13040;SDS011;6587;42.728;23.288;2023-02-01T07:39:39;5.10;;;3.20;;
13040;SDS011;6587;42.728;23.288;2023-02-01T07:42:06;23.07;;;15.67;;
13040;SDS011;6587;42.728;23.288;2023-02-01T07:44:33;28.30;;;17.70;;
13040;SDS011;6587;42.728;23.288;2023-02-01T07:47:00;10.70;;;6.90;;
13040;SDS011;6587;42.728;23.288;2023-02-01T07:49:28;9.93;;;5.07;;
13040;SDS011;6587;42.728;23.288;2023-02-01T07:51:55;6.63;;;3.80;;
13040;SDS011;6587;42.728;23.288;2023-02-01T07:54:21;7.60;;;3.43;;
13040;SDS011;6587;42.728;23.288;2023-02-01T07:56:48;12.37;;;6.13;;
13040;SDS011;6587;42.728;23.288;2023-02-01T07:59:15;8.70;;;4.43;;
13040;SDS011;6587;42.728;23.288;2023-02-01T08:01:42;6.37;;;3.60;;
13040;SDS011;6587;42.728;23.288;2023-02-01T08:04:09;5.13;;;3.40;;
13040;SDS011;6587;42.728;23.288;2023-02-01T08:06:40;11.37;;;3.30;;
13040;SDS011;6587;42.728;23.288;2023-02-01T08:09:07;15.30;;;8.20;;
13040;SDS011;6587;42.728;23.288;2023-02-01T08:11:36;7.27;;;4.20;;
13040;SDS011;6587;42.728;23.288;2023-02-01T08:14:03;10.67;;;5.80;;
13040;SDS011;6587;42.728;23.288;2023-02-01T08:16:31;10.47;;;5.17;;
13040;SDS011;6587;42.728;23.288;2023-02-01T08:19:00;9.23;;;5.10;;
13040;SDS011;6587;42.728;23.288;2023-02-01T08:21:28;8.73;;;4.93;;
13040;SDS011;6587;42.728;23.288;2023-02-01T08:24:03;6.47;;;3.57;;
13040;SDS011;6587;42.728;23.288;2023-02-01T08:26:31;10.60;;;5.13;;
13040;SDS011;6587;42.728;23.288;2023-02-01T08:28:58;8.10;;;4.93;;
13040;SDS011;6587;42.728;23.288;2023-02-01T08:31:27;9.43;;;4.63;;
13040;SDS011;6587;42.728;23.288;2023-02-01T08:33:55;6.47;;;3.70;;
13040;SDS011;6587;42.728;23.288;2023-02-01T08:36:24;8.97;;;4.33;;
13040;SDS011;6587;42.728;23.288;2023-02-01T08:38:52;9.30;;;5.33;;
13040;SDS011;6587;42.728;23.288;2023-02-01T08:41:21;8.00;;;4.17;;
13040;SDS011;6587;42.728;23.288;2023-02-01T08:43:49;7.67;;;4.07;;
13040;SDS011;6587;42.728;23.288;2023-02-01T08:46:18;6.40;;;3.43;;
13040;SDS011;6587;42.728;23.288;2023-02-01T08:48:45;7.23;;;4.63;;
13040;SDS011;6587;42.728;23.288;2023-02-01T08:51:13;7.33;;;3.70;;
13040;SDS011;6587;42.728;23.288;2023-02-01T08:53:41;7.07;;;4.00;;
13040;SDS011;6587;42.728;23.288;2023-02-01T08:56:09;8.13;;;3.13;;
13040;SDS011;6587;42.728;23.288;2023-02-01T08:58:38;5.87;;;2.90;;
13040;SDS011;6587;42.728;23.288;2023-02-01T09:01:05;3.93;;;3.13;;
13040;SDS011;6587;42.728;23.288;2023-02-01T09:03:34;10.43;;;3.90;;
13040;SDS011;6587;42.728;23.288;2023-02-01T09:06:01;5.53;;;3.40;;
13040;SDS011;6587;42.728;23.288;2023-02-01T09:08:29;4.63;;;2.80;;
13040;SDS011;6587;42.728;23.288;2023-02-01T09:10:59;6.67;;;3.40;;
13040;SDS011;6587;42.728;23.288;2023-02-01T09:13:26;7.27;;;3.53;;
13040;SDS011;6587;42.728;23.288;2023-02-01T09:15:55;4.97;;;2.80;;
13040;SDS011;6587;42.728;23.288;2023-02-01T09:18:22;6.40;;;2.90;;
13040;SDS011;6587;42.728;23.288;2023-02-01T09:20:49;3.93;;;2.30;;
13040;SDS011;6587;42.728;23.288;2023-02-01T09:23:16;4.97;;;2.47;;
13040;SDS011;6587;42.728;23.288;2023-02-01T09:25:43;5.80;;;2.10;;
13040;SDS011;6587;42.728;23.288;2023-02-01T09:28:10;4.90;;;3.20;;
13040;SDS011;6587;42.728;23.288;2023-02-01T09:30:37;4.57;;;2.40;;
13040;SDS011;6587;42.728;23.288;2023-02-01T09:33:05;6.20;;;2.73;;
13040;SDS011;6587;42.728;23.288;2023-02-01T09:35:32;4.70;;;2.60;;
13040;SDS011;6587;42.728;23.288;2023-02-01T09:37:59;4.23;;;2.60;;
13040;SDS011;6587;42.728;23.288;2023-02-01T09:40:25;7.60;;;3.30;;
13040;SDS011;6587;42.728;23.288;2023-02-01T09:42:58;2.67;;;2.03;;
13040;SDS011;6587;42.728;23.288;2023-02-01T09:45:36;4.73;;;2.43;;
13040;SDS011;6587;42.728;23.288;2023-02-01T09:48:13;3.40;;;2.50;;
13040;SDS011;6587;42.728;23.288;2023-02-01T09:50:42;4.37;;;2.13;;
13040;SDS011;6587;42.728;23.288;2023-02-01T09:53:12;5.70;;;3.47;;
13040;SDS011;6587;42.728;23.288;2023-02-01T09:55:48;6.00;;;3.03;;
13040;SDS011;6587;42.728;23.288;2023-02-01T09:58:18;4.63;;;2.70;;
13040;SDS011;6587;42.728;23.288;2023-02-01T10:00:50;6.50;;;3.63;;
13040;SDS011;6587;42.728;23.288;2023-02-01T10:03:21;4.60;;;2.60;;
13040;SDS011;6587;42.728;23.288;2023-02-01T10:05:54;10.63;;;4.17;;
13040;SDS011;6587;42.728;23.288;2023-02-01T10:08:37;9.63;;;3.97;;
13040;SDS011;6587;42.728;23.288;2023-02-01T10:11:20;4.87;;;2.70;;
13040;SDS011;6587;42.728;23.288;2023-02-01T10:13:54;4.93;;;3.10;;
13040;SDS011;6587;42.728;23.288;2023-02-01T10:16:35;7.33;;;3.10;;
13040;SDS011;6587;42.728;23.288;2023-02-01T10:19:17;3.70;;;3.00;;
13040;SDS011;6587;42.728;23.288;2023-02-01T10:21:52;5.53;;;3.53;;
13040;SDS011;6587;42.728;23.288;2023-02-01T10:24:34;7.50;;;3.90;;
13040;SDS011;6587;42.728;23.288;2023-02-01T10:27:16;4.90;;;2.40;;
13040;SDS011;6587;42.728;23.288;2023-02-01T10:29:46;6.77;;;3.63;;
13040;SDS011;6587;42.728;23.288;2023-02-01T10:32:19;6.77;;;3.63;;
13040;SDS011;6587;42.728;23.288;2023-02-01T10:34:52;6.27;;;3.73;;
13040;SDS011;6587;42.728;23.288;2023-02-01T10:37:25;4.17;;;2.90;;
13040;SDS011;6587;42.728;23.288;2023-02-01T10:39:54;5.73;;;2.80;;
13040;SDS011;6587;42.728;23.288;2023-02-01T10:42:24;8.57;;;3.53;;
13040;SDS011;6587;42.728;23.288;2023-02-01T10:44:53;8.27;;;4.50;;
13040;SDS011;6587;42.728;23.288;2023-02-01T10:47:23;6.37;;;3.30;;
13040;SDS011;6587;42.728;23.288;2023-02-01T10:49:52;6.50;;;4.27;;
13040;SDS011;6587;42.728;23.288;2023-02-01T10:52:28;5.87;;;3.40;;
13040;SDS011;6587;42.728;23.288;2023-02-01T10:58:04;7.97;;;4.80;;
13040;SDS011;6587;42.728;23.288;2023-02-01T11:00:36;5.60;;;3.03;;
13040;SDS011;6587;42.728;23.288;2023-02-01T11:03:25;6.97;;;3.17;;
13040;SDS011;6587;42.728;23.288;2023-02-01T11:06:00;3.43;;;2.10;;
13040;SDS011;6587;42.728;23.288;2023-02-01T11:08:29;4.67;;;1.97;;
13040;SDS011;6587;42.728;23.288;2023-02-01T11:10:57;4.50;;;2.60;;
13040;SDS011;6587;42.728;23.288;2023-02-01T11:13:27;4.60;;;2.60;;
13040;SDS011;6587;42.728;23.288;2023-02-01T11:15:57;4.00;;;1.73;;
13040;SDS011;6587;42.728;23.288;2023-02-01T11:18:26;1.93;;;1.60;;
13040;SDS011;6587;42.728;23.288;2023-02-01T11:20:54;4.93;;;1.80;;
13040;SDS011;6587;42.728;23.288;2023-02-01T11:23:23;5.67;;;2.67;;
13040;SDS011;6587;42.728;23.288;2023-02-01T11:25:52;4.80;;;2.10;;
13040;SDS011;6587;42.728;23.288;2023-02-01T11:28:21;2.27;;;1.70;;
13040;SDS011;6587;42.728;23.288;2023-02-01T11:30:51;3.77;;;2.13;;
13040;SDS011;6587;42.728;23.288;2023-02-01T11:33:24;5.40;;;3.00;;
13040;SDS011;6587;42.728;23.288;2023-02-01T11:35:55;4.57;;;1.73;;
13040;SDS011;6587;42.728;23.288;2023-02-01T11:38:27;3.17;;;2.10;;
13040;SDS011;6587;42.728;23.288;2023-02-01T11:40:55;5.03;;;2.30;;
13040;SDS011;6587;42.728;23.288;2023-02-01T11:43:49;11.37;;;6.70;;
13040;SDS011;6587;42.728;23.288;2023-02-01T11:46:18;5.43;;;1.97;;
13040;SDS011;6587;42.728;23.288;2023-02-01T11:48:50;2.37;;;1.70;;
13040;SDS011;6587;42.728;23.288;2023-02-01T11:51:25;2.40;;;1.60;;
13040;SDS011;6587;42.728;23.288;2023-02-01T11:54:08;2.40;;;1.77;;
13040;SDS011;6587;42.728;23.288;2023-02-01T11:56:48;5.40;;;1.70;;
13040;SDS011;6587;42.728;23.288;2023-02-01T11:59:30;2.67;;;1.80;;
13040;SDS011;6587;42.728;23.288;2023-02-01T12:02:23;5.33;;;3.50;;
13040;SDS011;6587;42.728;23.288;2023-02-01T12:05:14;9.07;;;3.97;;
13040;SDS011;6587;42.728;23.288;2023-02-01T12:08:02;4.17;;;2.33;;
13040;SDS011;6587;42.728;23.288;2023-02-01T12:10:42;2.13;;;1.90;;
13040;SDS011;6587;42.728;23.288;2023-02-01T12:13:22;2.00;;;1.73;;
13040;SDS011;6587;42.728;23.288;2023-02-01T12:16:04;4.13;;;2.20;;
13040;SDS011;6587;42.728;23.288;2023-02-01T12:21:44;4.80;;;1.63;;
13040;SDS011;6587;42.728;23.288;2023-02-01T12:27:30;1.77;;;1.60;;
13040;SDS011;6587;42.728;23.288;2023-02-01T12:30:14;2.77;;;1.60;;
13040;SDS011;6587;42.728;23.288;2023-02-01T12:33:10;2.03;;;1.27;;
13040;SDS011;6587;42.728;23.288;2023-02-01T12:35:53;2.37;;;1.73;;
13040;SDS011;6587;42.728;23.288;2023-02-01T12:38:35;2.70;;;1.30;;
13040;SDS011;6587;42.728;23.288;2023-02-01T12:41:27;2.03;;;1.57;;
13040;SDS011;6587;42.728;23.288;2023-02-01T12:44:06;2.63;;;1.60;;
13040;SDS011;6587;42.728;23.288;2023-02-01T12:46:40;3.37;;;2.03;;
13040;SDS011;6587;42.728;23.288;2023-02-01T12:49:10;2.57;;;1.60;;
13040;SDS011;6587;42.728;23.288;2023-02-01T12:51:44;3.03;;;2.10;;
13040;SDS011;6587;42.728;23.288;2023-02-01T12:54:17;5.10;;;1.93;;
13040;SDS011;6587;42.728;23.288;2023-02-01T12:56:49;3.03;;;1.37;;
13040;SDS011;6587;42.728;23.288;2023-02-01T12:59:22;6.30;;;1.93;;
13040;SDS011;6587;42.728;23.288;2023-02-01T13:01:54;3.47;;;1.80;;
13040;SDS011;6587;42.728;23.288;2023-02-01T13:04:26;2.30;;;1.80;;
13040;SDS011;6587;42.728;23.288;2023-02-01T13:06:59;2.97;;;1.87;;
13040;SDS011;6587;42.728;23.288;2023-02-01T13:09:34;6.37;;;3.33;;
13040;SDS011;6587;42.728;23.288;2023-02-01T13:12:14;5.70;;;2.87;;
13040;SDS011;6587;42.728;23.288;2023-02-01T13:14:48;3.90;;;2.00;;
13040;SDS011;6587;42.728;23.288;2023-02-01T13:17:21;4.93;;;2.00;;
13040;SDS011;6587;42.728;23.288;2023-02-01T13:19:52;5.03;;;2.37;;
13040;SDS011;6587;42.728;23.288;2023-02-01T13:22:22;3.10;;;2.00;;
13040;SDS011;6587;42.728;23.288;2023-02-01T13:24:55;2.00;;;1.67;;
13040;SDS011;6587;42.728;23.288;2023-02-01T13:27:26;2.33;;;1.70;;
13040;SDS011;6587;42.728;23.288;2023-02-01T13:29:57;3.17;;;2.00;;
13040;SDS011;6587;42.728;23.288;2023-02-01T13:35:25;3.83;;;2.10;;
13040;SDS011;6587;42.728;23.288;2023-02-01T13:38:26;3.07;;;2.03;;
13040;SDS011;6587;42.728;23.288;2023-02-01T13:41:12;3.57;;;2.10;;
13040;SDS011;6587;42.728;23.288;2023-02-01T13:43:52;3.57;;;2.07;;
13040;SDS011;6587;42.728;23.288;2023-02-01T13:46:23;3.87;;;1.97;;
13040;SDS011;6587;42.728;23.288;2023-02-01T13:48:51;5.27;;;2.60;;
13040;SDS011;6587;42.728;23.288;2023-02-01T13:51:30;4.87;;;2.43;;
13040;SDS011;6587;42.728;23.288;2023-02-01T13:54:01;2.40;;;1.93;;
13040;SDS011;6587;42.728;23.288;2023-02-01T13:56:32;2.33;;;1.70;;
13040;SDS011;6587;42.728;23.288;2023-02-01T14:05:06;5.33;;;2.63;;
13040;SDS011;6587;42.728;23.288;2023-02-01T14:07:35;2.47;;;1.93;;
13040;SDS011;6587;42.728;23.288;2023-02-01T14:13:04;4.47;;;1.77;;
13040;SDS011;6587;42.728;23.288;2023-02-01T14:15:38;3.17;;;2.13;;
13040;SDS011;6587;42.728;23.288;2023-02-01T14:18:20;6.07;;;3.10;;
13040;SDS011;6587;42.728;23.288;2023-02-01T14:21:33;3.13;;;2.37;;
13040;SDS011;6587;42.728;23.288;2023-02-01T14:24:14;5.87;;;3.50;;
13040;SDS011;6587;42.728;23.288;2023-02-01T14:26:47;6.60;;;4.00;;
13040;SDS011;6587;42.728;23.288;2023-02-01T14:29:21;5.20;;;3.40;;
13040;SDS011;6587;42.728;23.288;2023-02-01T14:31:54;6.33;;;2.37;;
13040;SDS011;6587;42.728;23.288;2023-02-01T14:34:37;5.70;;;2.73;;
13040;SDS011;6587;42.728;23.288;2023-02-01T14:37:13;8.67;;;3.60;;
13040;SDS011;6587;42.728;23.288;2023-02-01T14:39:53;5.00;;;3.37;;
13040;SDS011;6587;42.728;23.288;2023-02-01T14:42:26;12.00;;;5.10;;
13040;SDS011;6587;42.728;23.288;2023-02-01T14:44:56;10.07;;;4.40;;
13040;SDS011;6587;42.728;23.288;2023-02-01T14:51:00;3.90;;;3.10;;
13040;SDS011;6587;42.728;23.288;2023-02-01T14:53:30;6.03;;;4.10;;
13040;SDS011;6587;42.728;23.288;2023-02-01T14:56:04;5.20;;;3.30;;
13040;SDS011;6587;42.728;23.288;2023-02-01T14:58:39;6.30;;;3.20;;
13040;SDS011;6587;42.728;23.288;2023-02-01T15:01:15;5.67;;;3.30;;
13040;SDS011;6587;42.728;23.288;2023-02-01T15:03:47;6.17;;;3.93;;
13040;SDS011;6587;42.728;23.288;2023-02-01T15:06:26;8.67;;;4.50;;
13040;SDS011;6587;42.728;23.288;2023-02-01T15:08:59;7.17;;;4.60;;
13040;SDS011;6587;42.728;23.288;2023-02-01T15:11:29;8.27;;;5.30;;
13040;SDS011;6587;42.728;23.288;2023-02-01T15:13:56;6.97;;;3.97;;
13040;SDS011;6587;42.728;23.288;2023-02-01T15:16:25;8.40;;;4.60;;
13040;SDS011;6587;42.728;23.288;2023-02-01T15:19:09;8.60;;;4.67;;
13040;SDS011;6587;42.728;23.288;2023-02-01T15:21:44;5.83;;;3.53;;
13040;SDS011;6587;42.728;23.288;2023-02-01T15:24:14;7.67;;;4.63;;
13040;SDS011;6587;42.728;23.288;2023-02-01T15:26:46;8.57;;;5.07;;
13040;SDS011;6587;42.728;23.288;2023-02-01T15:29:13;7.77;;;5.57;;
13040;SDS011;6587;42.728;23.288;2023-02-01T15:31:42;9.43;;;5.80;;
13040;SDS011;6587;42.728;23.288;2023-02-01T15:34:10;9.40;;;6.10;;
13040;SDS011;6587;42.728;23.288;2023-02-01T15:36:39;12.87;;;6.40;;
13040;SDS011;6587;42.728;23.288;2023-02-01T15:39:16;10.03;;;5.80;;
13040;SDS011;6587;42.728;23.288;2023-02-01T15:41:46;15.83;;;8.83;;
13040;SDS011;6587;42.728;23.288;2023-02-01T15:44:17;16.63;;;8.70;;